KJOT/JOT METAR and TAF weather

Enter ICAO airport designator
Station Type Date Time Source
KJOT METAR 2022/07/01 00:55 UTC NOAA

KJOT 010055Z AUTO 23004KT 10SM CLR 29/16 A2995 RMK AO2 T02870158


Station Type Date Time Source
KJOT Decoded METAR 2022/07/01 00:55 UTC NOAA

Joliet, Joliet Regional Airport, IL, United States (KJOT) 41-31-05N 088-10-31W
Jun 30, 2022 - 08:55 PM EDT / 2022.07.01 0055 UTC
Wind: from the SW (230 degrees) at 5 MPH (4 KT):0
Visibility: 10 mile(s):0
Sky conditions: clear
Temperature: 83.7 F (28.7 C)
Dew Point: 60.4 F (15.8 C)
Relative Humidity: 45%
Pressure (altimeter): 29.95 in. Hg (1014 hPa)
ob: KJOT 010055Z AUTO 23004KT 10SM CLR 29/16 A2995 RMK AO2 T02870158
cycle: 1

Station Type Date Time Source
KJOT TAF UTC NOAA

Error!

Example: see airport list